createdAt,value
2023-05-02T00:00:23.455Z,84.53
2023-05-02T00:02:23.779Z,84.43
2023-05-02T00:04:25.324Z,84.03
2023-05-02T00:06:25.632Z,83.48
2023-05-02T00:08:25.979Z,83.27
2023-05-02T00:10:26.261Z,82.35
2023-05-02T00:12:26.557Z,81.34
2023-05-02T00:14:26.856Z,80.73
2023-05-02T00:16:27.254Z,80.29
2023-05-02T00:18:27.564Z,80.32
2023-05-02T00:20:27.861Z,80.22
2023-05-02T00:22:28.186Z,80.42
2023-05-02T00:24:28.460Z,80.63
2023-05-02T00:26:28.822Z,80.73
2023-05-02T00:28:29.167Z,81.17
2023-05-02T00:30:29.419Z,81.38
2023-05-02T00:32:29.751Z,81.58
2023-05-02T00:34:30.045Z,82.03
2023-05-02T00:36:30.385Z,82.33
2023-05-02T00:38:30.704Z,82.33
2023-05-02T00:40:30.988Z,82.33
2023-05-02T00:42:31.303Z,82.47
2023-05-02T00:44:31.694Z,82.47
2023-05-02T00:46:32.095Z,82.71
2023-05-02T00:48:32.444Z,82.88
2023-05-02T00:50:32.817Z,82.71
2023-05-02T00:52:33.111Z,83.33
2023-05-02T00:54:33.386Z,83.33
2023-05-02T00:56:33.758Z,83.43
2023-05-02T00:58:34.028Z,83.33
2023-05-02T01:00:34.340Z,83.43
2023-05-02T01:02:34.755Z,83.78
2023-05-02T01:04:35.015Z,83.78
2023-05-02T01:06:35.429Z,83.98
2023-05-02T01:08:35.745Z,84.22
2023-05-02T01:10:36.032Z,85.04
2023-05-02T01:12:36.357Z,85.49
2023-05-02T01:14:36.662Z,85.69
2023-05-02T01:16:37.047Z,86.04
2023-05-02T01:18:37.368Z,85.22
2023-05-02T01:20:37.657Z,85.22
2023-05-02T01:22:37.981Z,84.91
2023-05-02T01:24:38.331Z,84.47
2023-05-02T01:26:38.630Z,83.75
2023-05-02T01:28:38.901Z,83.75
2023-05-02T01:30:39.198Z,84.06
2023-05-02T01:32:39.642Z,83.89
2023-05-02T01:34:39.920Z,84.61
2023-05-02T01:36:40.262Z,85.73
2023-05-02T01:38:40.557Z,86.18
2023-05-02T01:40:40.894Z,86.38
2023-05-02T01:42:41.197Z,86.94
2023-05-02T01:44:41.446Z,87.65
2023-05-02T01:46:41.872Z,88.17
2023-05-02T01:48:42.198Z,88.41
2023-05-02T01:50:42.467Z,88.62
2023-05-02T01:52:42.810Z,89.47
2023-05-02T01:54:43.086Z,90.09
2023-05-02T01:56:43.390Z,90.39
2023-05-02T01:58:43.682Z,91.46
2023-05-02T02:00:44.074Z,91.36
2023-05-02T02:02:44.320Z,91.61
2023-05-02T02:04:44.746Z,91.82
2023-05-02T02:06:45.157Z,91.71
2023-05-02T02:08:45.521Z,91.91
2023-05-02T02:10:45.848Z,92.57
2023-05-02T02:12:46.193Z,92.57
2023-05-02T02:14:46.485Z,92.57
2023-05-02T02:16:46.877Z,92.57
2023-05-02T02:18:47.166Z,92.98
2023-05-02T02:20:52.436Z,92.98
2023-05-02T02:22:52.723Z,93.08
2023-05-02T02:24:54.317Z,93.39
2023-05-02T02:26:54.791Z,93.29
2023-05-02T02:28:55.070Z,93.19
2023-05-02T02:30:55.414Z,93.33
2023-05-02T02:32:55.726Z,93.44
2023-05-02T02:34:56.045Z,93.33
2023-05-02T02:36:56.368Z,93.44
2023-05-02T02:38:56.679Z,93.64
2023-05-02T02:40:57.015Z,93.99
2023-05-02T02:42:57.289Z,94.20
2023-05-02T02:44:57.578Z,94.40
2023-05-02T02:46:57.908Z,94.61
2023-05-02T02:48:58.208Z,94.51
2023-05-02T02:50:58.503Z,94.55
2023-05-02T02:52:58.820Z,94.85
2023-05-02T02:54:59.076Z,94.85
2023-05-02T02:56:59.417Z,95.06
2023-05-02T02:58:59.702Z,95.37
2023-05-02T03:01:00.011Z,95.37
2023-05-02T03:03:00.421Z,95.57
2023-05-02T03:05:00.745Z,95.78
2023-05-02T03:07:01.031Z,95.78
2023-05-02T03:09:01.343Z,95.57
2023-05-02T03:11:01.646Z,95.47
2023-05-02T03:13:01.949Z,95.62
2023-05-02T03:15:02.205Z,95.93
2023-05-02T03:17:02.567Z,95.83
2023-05-02T03:19:02.789Z,95.72
2023-05-02T03:21:03.106Z,95.72
2023-05-02T03:23:03.449Z,95.72
2023-05-02T03:25:03.757Z,95.77
2023-05-02T03:27:08.960Z,96.08
2023-05-02T03:29:09.292Z,96.59
2023-05-02T03:31:09.604Z,96.65
2023-05-02T03:33:09.984Z,96.65
2023-05-02T03:35:10.310Z,96.55
2023-05-02T03:37:10.600Z,96.34
2023-05-02T03:39:10.905Z,96.34
2023-05-02T03:41:11.222Z,96.23
2023-05-02T03:43:11.541Z,96.03
2023-05-02T03:45:11.818Z,95.93
2023-05-02T03:47:12.161Z,95.93
2023-05-02T03:49:12.508Z,96.14
2023-05-02T03:51:12.796Z,95.98
2023-05-02T03:53:13.074Z,95.89
2023-05-02T03:55:13.402Z,95.78
2023-05-02T03:57:13.750Z,95.72
2023-05-02T03:59:14.033Z,95.72
2023-05-02T04:01:14.330Z,95.93
2023-05-02T04:03:14.754Z,95.83
2023-05-02T04:05:15.031Z,95.62
2023-05-02T04:07:15.394Z,95.83
2023-05-02T04:09:15.705Z,96.14
2023-05-02T04:11:16.063Z,96.14
2023-05-02T04:13:16.373Z,96.08
2023-05-02T04:15:16.669Z,96.08
2023-05-02T04:17:17.089Z,96.39
2023-05-02T04:19:17.376Z,96.55
2023-05-02T04:21:17.674Z,96.44
2023-05-02T04:23:18.012Z,96.23
2023-05-02T04:25:18.295Z,96.03
2023-05-02T04:27:18.626Z,95.83
2023-05-02T04:29:18.925Z,95.83
2023-05-02T04:31:19.336Z,95.98
2023-05-02T04:33:19.643Z,95.47
2023-05-02T04:35:19.915Z,94.81
2023-05-02T04:37:21.221Z,94.40
2023-05-02T04:39:21.607Z,93.85
2023-05-02T04:41:22.816Z,93.44
2023-05-02T04:43:24.540Z,93.13
2023-05-02T04:45:25.142Z,92.88
2023-05-02T04:47:25.490Z,92.27
2023-05-02T04:49:25.766Z,91.86
2023-05-02T04:51:26.111Z,91.40
2023-05-02T04:53:26.375Z,91.09
2023-05-02T04:55:26.657Z,91.09
2023-05-02T04:57:26.990Z,91.20
2023-05-02T04:59:27.270Z,91.09
2023-05-02T05:01:27.615Z,91.09
2023-05-02T05:03:28.094Z,90.99
2023-05-02T05:05:28.639Z,90.75
2023-05-02T05:07:29.061Z,90.54
2023-05-02T05:09:29.449Z,90.44
2023-05-02T05:11:29.787Z,90.13
2023-05-02T05:13:30.088Z,89.92
2023-05-02T05:15:30.577Z,89.58
2023-05-02T05:17:30.991Z,89.17
2023-05-02T05:19:31.565Z,89.17
2023-05-02T05:21:32.018Z,88.92
2023-05-02T05:23:32.536Z,88.82
2023-05-02T05:25:32.782Z,88.82
2023-05-02T05:27:33.177Z,88.92
2023-05-02T05:29:33.617Z,88.37
2023-05-02T05:31:33.911Z,88.37
2023-05-02T05:33:34.336Z,87.61
2023-05-02T05:35:34.699Z,87.71
2023-05-02T05:37:35.003Z,87.26
2023-05-02T05:39:35.326Z,87.57
2023-05-02T05:41:35.650Z,87.47
2023-05-02T05:43:37.980Z,86.91
2023-05-02T05:45:38.607Z,86.71
2023-05-02T05:47:39.139Z,86.91
2023-05-02T05:49:39.461Z,87.29
2023-05-02T05:51:39.760Z,87.08
2023-05-02T05:53:40.062Z,88.20
2023-05-02T05:55:42.177Z,87.59
2023-05-02T05:57:42.751Z,87.59
2023-05-02T05:59:43.016Z,87.76
2023-05-02T06:01:43.375Z,87.04
2023-05-02T06:03:43.899Z,86.39
2023-05-02T06:05:44.305Z,85.37
2023-05-02T06:07:44.624Z,85.37
2023-05-02T06:09:44.936Z,85.88
2023-05-02T06:11:45.253Z,85.68
2023-05-02T06:13:45.528Z,85.57
2023-05-02T06:15:45.948Z,85.33
2023-05-02T06:17:46.271Z,85.63
2023-05-02T06:19:46.565Z,83.70
2023-05-02T06:21:46.932Z,84.58
2023-05-02T06:23:47.209Z,84.67
2023-05-02T06:25:47.530Z,84.23
2023-05-02T06:27:47.805Z,83.82
2023-05-02T06:29:48.130Z,83.21
2023-05-02T06:31:48.425Z,84.03
2023-05-02T06:33:48.701Z,84.43
2023-05-02T06:35:49.020Z,84.84
2023-05-02T06:37:54.332Z,85.55
2023-05-02T06:39:54.657Z,84.43
2023-05-02T06:41:54.920Z,84.39
2023-05-02T06:43:55.215Z,82.76
2023-05-02T06:45:55.554Z,83.17
2023-05-02T06:47:55.929Z,83.17
2023-05-02T06:49:56.264Z,82.29
2023-05-02T06:51:56.607Z,82.29
2023-05-02T06:53:56.856Z,81.79
2023-05-02T06:55:57.210Z,82.29
2023-05-02T06:57:57.554Z,82.56
2023-05-02T06:59:58.014Z,82.76
2023-05-02T07:01:58.528Z,82.26
2023-05-02T07:03:58.865Z,81.71
2023-05-02T07:05:59.330Z,81.51
2023-05-02T07:07:59.610Z,80.99
2023-05-02T07:10:00.129Z,80.99
2023-05-02T07:12:01.032Z,81.10
2023-05-02T07:14:01.602Z,81.40
2023-05-02T07:16:01.974Z,81.71
2023-05-02T07:18:03.160Z,81.65
2023-05-02T07:20:03.925Z,81.68
2023-05-02T07:22:04.467Z,82.60
2023-05-02T07:24:04.776Z,82.19
2023-05-02T07:26:06.405Z,81.65
2023-05-02T07:28:06.809Z,82.26
2023-05-02T07:30:07.093Z,81.34
2023-05-02T07:32:07.448Z,82.12
2023-05-02T07:34:07.702Z,82.01
2023-05-02T07:36:08.036Z,81.67
2023-05-02T07:38:08.340Z,80.96
2023-05-02T07:40:08.722Z,80.85
2023-05-02T07:42:09.034Z,80.72
2023-05-02T07:44:09.364Z,80.31
2023-05-02T07:46:09.735Z,79.90
2023-05-02T07:48:10.326Z,79.70
2023-05-02T07:50:10.669Z,79.86
2023-05-02T07:52:10.979Z,80.98
2023-05-02T07:54:11.309Z,79.46
2023-05-02T07:56:11.631Z,79.72
2023-05-02T07:58:11.992Z,77.97
2023-05-02T08:00:12.291Z,78.98
2023-05-02T08:02:12.644Z,77.42
2023-05-02T08:04:13.199Z,77.52
2023-05-02T08:06:13.716Z,75.86
2023-05-02T08:08:14.012Z,72.61
2023-05-02T08:10:14.305Z,72.99
2023-05-02T08:12:14.619Z,73.43
2023-05-02T08:14:14.964Z,73.69
2023-05-02T08:16:15.353Z,71.23
2023-05-02T08:18:15.742Z,71.30
2023-05-02T08:20:16.275Z,70.59
2023-05-02T08:22:16.525Z,69.18
2023-05-02T08:24:16.851Z,67.52
2023-05-02T08:26:17.179Z,68.56
2023-05-02T08:28:17.654Z,69.44
2023-05-02T08:30:18.294Z,68.23
2023-05-02T08:32:20.587Z,68.66
2023-05-02T08:34:20.941Z,69.17
2023-05-02T08:36:21.259Z,69.34
2023-05-02T08:38:21.608Z,69.24
2023-05-02T08:40:30.457Z,69.44
2023-05-02T08:42:27.136Z,68.60
2023-05-02T08:44:27.424Z,68.60
2023-05-02T08:46:27.782Z,67.25
2023-05-02T08:48:28.099Z,67.89
2023-05-02T08:50:28.436Z,67.59
2023-05-02T08:52:28.758Z,68.70
2023-05-02T08:54:29.068Z,67.93
2023-05-02T08:56:29.385Z,68.63
2023-05-02T08:58:29.735Z,68.43
2023-05-02T09:00:30.084Z,68.19
2023-05-02T09:02:30.609Z,67.59
2023-05-02T09:04:31.074Z,68.50
2023-05-02T09:06:31.441Z,67.32
2023-05-02T09:08:31.739Z,66.28
2023-05-02T09:10:32.071Z,64.16
2023-05-02T09:12:32.353Z,64.76
2023-05-02T09:14:32.652Z,65.44
2023-05-02T09:16:33.133Z,65.04
2023-05-02T09:18:33.623Z,63.25
2023-05-02T09:20:33.938Z,64.73
2023-05-02T09:22:34.258Z,64.73
2023-05-02T09:24:34.543Z,64.42
2023-05-02T09:26:35.028Z,65.43
2023-05-02T09:28:35.311Z,64.52
2023-05-02T09:30:35.661Z,65.84
2023-05-02T09:32:35.988Z,65.67
2023-05-02T09:34:36.280Z,66.07
2023-05-02T09:36:36.588Z,65.64
2023-05-02T09:38:37.212Z,66.24
2023-05-02T09:40:37.478Z,66.14
2023-05-02T09:42:37.827Z,64.93
2023-05-02T09:44:38.252Z,65.43
2023-05-02T09:46:38.595Z,65.43
2023-05-02T09:48:38.913Z,66.88
2023-05-02T09:50:39.215Z,68.19
2023-05-02T09:52:39.522Z,68.94
2023-05-02T09:54:39.942Z,66.88
2023-05-02T09:56:40.205Z,67.11
2023-05-02T09:58:40.474Z,67.62
2023-05-02T10:00:40.868Z,68.23
2023-05-02T10:02:41.242Z,68.73
2023-05-02T10:04:41.629Z,68.56
2023-05-02T10:06:42.062Z,69.27
2023-05-02T10:08:42.336Z,69.44
2023-05-02T10:10:42.709Z,69.34
2023-05-02T10:12:43.009Z,67.99
2023-05-02T10:14:43.323Z,68.19
2023-05-02T10:16:43.674Z,68.73
2023-05-02T10:18:43.948Z,69.04
2023-05-02T10:20:44.284Z,69.57
2023-05-02T10:22:44.587Z,69.17
2023-05-02T10:24:44.904Z,69.51
2023-05-02T10:26:45.264Z,69.41
2023-05-02T10:28:45.558Z,69.81
2023-05-02T10:30:45.909Z,69.92
2023-05-02T10:32:46.277Z,70.32
2023-05-02T10:34:46.555Z,70.52
2023-05-02T10:36:46.915Z,70.52
2023-05-02T10:38:47.310Z,70.29
2023-05-02T10:40:47.680Z,68.66
2023-05-02T10:42:47.999Z,67.52
2023-05-02T10:44:48.317Z,66.98
2023-05-02T10:46:48.652Z,66.35
2023-05-02T10:48:49.111Z,66.61
2023-05-02T10:50:49.365Z,64.90
2023-05-02T10:52:49.650Z,65.50
2023-05-02T10:54:49.965Z,65.47
2023-05-02T10:56:50.281Z,63.12
2023-05-02T10:58:50.564Z,63.02
2023-05-02T11:00:50.915Z,62.34
2023-05-02T11:02:51.307Z,63.45
2023-05-02T11:04:51.676Z,63.25
2023-05-02T11:06:51.984Z,63.35
2023-05-02T11:08:52.296Z,63.12
2023-05-02T11:10:52.629Z,62.41
2023-05-02T11:12:52.946Z,62.38
2023-05-02T11:14:53.214Z,60.06
2023-05-02T11:16:53.643Z,60.64
2023-05-02T11:18:53.948Z,59.00
2023-05-02T11:20:55.036Z,60.24
2023-05-02T11:22:55.353Z,60.96
2023-05-02T11:24:55.642Z,58.91
2023-05-02T11:26:55.960Z,59.64
2023-05-02T11:28:56.247Z,59.72
2023-05-02T11:30:57.434Z,58.91
2023-05-02T11:32:58.319Z,58.23
2023-05-02T11:34:59.078Z,58.44
2023-05-02T11:36:59.561Z,59.14
2023-05-02T11:39:00.112Z,59.07
2023-05-02T11:41:00.400Z,58.23
2023-05-02T11:43:00.726Z,58.78
2023-05-02T11:45:01.482Z,57.02
2023-05-02T11:47:02.026Z,55.63
2023-05-02T11:49:02.327Z,55.13
2023-05-02T11:51:02.793Z,55.61
2023-05-02T11:53:03.247Z,56.09
2023-05-02T11:55:09.647Z,56.13
2023-05-02T11:57:10.645Z,54.83
2023-05-02T11:59:11.031Z,53.77
2023-05-02T12:01:11.370Z,51.97
2023-05-02T12:03:11.743Z,53.27
2023-05-02T12:05:12.221Z,50.94
2023-05-02T12:07:12.560Z,52.89
2023-05-02T12:09:12.878Z,51.14
2023-05-02T12:11:13.227Z,50.37
2023-05-02T12:13:13.583Z,51.46
2023-05-02T12:15:13.905Z,50.46
2023-05-02T12:17:14.209Z,48.96
2023-05-02T12:19:14.559Z,50.81
2023-05-02T12:21:14.907Z,51.76
2023-05-02T12:23:15.306Z,51.59
2023-05-02T12:25:15.929Z,51.59
2023-05-02T12:27:16.201Z,51.49
2023-05-02T12:29:16.627Z,51.81
2023-05-02T12:31:16.958Z,52.80
2023-05-02T12:33:17.464Z,52.07
2023-05-02T12:35:17.728Z,50.56
2023-05-02T12:37:18.118Z,51.56
2023-05-02T12:39:18.440Z,51.24
2023-05-02T12:41:18.790Z,51.56
2023-05-02T12:43:19.034Z,51.31
2023-05-02T12:45:20.535Z,51.94
2023-05-02T12:47:21.636Z,52.26
2023-05-02T12:49:23.211Z,53.45
2023-05-02T12:51:23.920Z,52.74
2023-05-02T12:53:24.915Z,52.04
2023-05-02T12:55:25.522Z,52.29
2023-05-02T12:57:26.341Z,53.07
2023-05-02T12:59:26.728Z,52.87
2023-05-02T13:01:27.236Z,51.44
2023-05-02T13:03:27.731Z,52.04
2023-05-02T13:05:28.519Z,52.42
2023-05-02T13:07:28.845Z,51.31
2023-05-02T13:09:29.159Z,50.79
2023-05-02T13:11:29.460Z,51.17
2023-05-02T13:13:29.800Z,50.63
2023-05-02T13:15:30.197Z,49.46
2023-05-02T13:17:30.705Z,51.11
2023-05-02T13:19:31.361Z,51.14
2023-05-02T13:21:31.816Z,52.06
2023-05-02T13:23:32.100Z,51.84
2023-05-02T13:25:32.573Z,50.91
2023-05-02T13:27:32.825Z,51.19
2023-05-02T13:29:33.204Z,50.46
2023-05-02T13:31:33.564Z,50.29
2023-05-02T13:33:34.974Z,51.09
2023-05-02T13:35:35.817Z,51.01
2023-05-02T13:37:36.295Z,51.76
2023-05-02T13:39:36.789Z,50.26
2023-05-02T13:41:37.345Z,50.06
2023-05-02T13:43:37.704Z,51.79
2023-05-02T13:45:38.341Z,51.06
2023-05-02T13:47:39.547Z,49.91
2023-05-02T13:49:41.259Z,47.81
2023-05-02T13:51:41.567Z,48.41
2023-05-02T13:53:42.121Z,47.91
2023-05-02T13:55:42.415Z,48.51
2023-05-02T13:57:42.770Z,48.96
2023-05-02T13:59:43.148Z,47.52
2023-05-02T14:01:43.513Z,46.92
2023-05-02T14:03:43.958Z,45.89
2023-05-02T14:05:44.252Z,43.79
2023-05-02T14:07:44.619Z,45.20
2023-05-02T14:09:45.239Z,43.99
2023-05-02T14:11:45.604Z,42.82
2023-05-02T14:13:45.907Z,44.34
2023-05-02T14:15:46.272Z,43.74
2023-05-02T14:17:47.128Z,43.63
2023-05-02T14:19:47.441Z,44.64
2023-05-02T14:21:48.095Z,45.69
2023-05-02T14:23:48.424Z,44.49
2023-05-02T14:25:48.747Z,46.30
2023-05-02T14:27:49.084Z,46.94
2023-05-02T14:29:49.421Z,48.31
2023-05-02T14:31:49.834Z,49.56
2023-05-02T14:33:50.127Z,48.93
2023-05-02T14:35:50.419Z,48.71
2023-05-02T14:37:50.786Z,48.31
2023-05-02T14:39:52.850Z,47.50
2023-05-02T14:41:54.538Z,48.05
2023-05-02T14:43:54.878Z,48.18
2023-05-02T14:45:55.480Z,48.48
2023-05-02T14:47:55.914Z,49.08
2023-05-02T14:49:56.307Z,47.65
2023-05-02T14:51:58.418Z,47.15
2023-05-02T14:53:59.104Z,47.41
2023-05-02T14:55:59.544Z,44.88
2023-05-02T14:57:59.820Z,45.26
2023-05-02T15:00:00.790Z,45.34
2023-05-02T15:02:01.516Z,45.06
2023-05-02T15:04:05.795Z,44.68
2023-05-02T15:06:07.086Z,44.46
2023-05-02T15:08:07.382Z,44.35
2023-05-02T15:10:07.754Z,44.43
2023-05-02T15:12:08.053Z,42.54
2023-05-02T15:14:08.382Z,43.05
2023-05-02T15:16:08.682Z,42.43
2023-05-02T15:18:09.081Z,44.29
2023-05-02T15:20:09.417Z,42.97
2023-05-02T15:22:14.565Z,42.25
2023-05-02T15:24:14.932Z,40.88
2023-05-02T15:26:15.278Z,41.17
2023-05-02T15:28:15.633Z,39.78
2023-05-02T15:30:17.880Z,40.58
2023-05-02T15:32:18.452Z,38.85
2023-05-02T15:34:18.764Z,40.56
2023-05-02T15:36:19.067Z,42.18
2023-05-02T15:38:19.837Z,43.82
2023-05-02T15:40:20.249Z,45.46
2023-05-02T15:42:20.587Z,45.78
2023-05-02T15:44:21.071Z,45.38
2023-05-02T15:46:21.544Z,45.26
2023-05-02T15:48:21.869Z,44.04
2023-05-02T15:50:22.194Z,43.84
2023-05-02T15:52:22.499Z,44.50
2023-05-02T15:54:23.086Z,46.07
2023-05-02T15:56:23.495Z,46.72
2023-05-02T15:58:23.810Z,47.22
2023-05-02T16:00:24.124Z,46.51
2023-05-02T16:02:24.644Z,46.39
2023-05-02T16:04:25.030Z,46.85
2023-05-02T16:06:25.374Z,46.35
2023-05-02T16:08:25.716Z,46.15
2023-05-02T16:10:26.165Z,47.15
2023-05-02T16:12:26.633Z,48.16
2023-05-02T16:14:26.947Z,47.65
2023-05-02T16:16:27.309Z,46.50
2023-05-02T16:18:27.605Z,46.38
2023-05-02T16:20:27.962Z,47.17
2023-05-02T16:22:28.352Z,45.71
2023-05-02T16:24:28.765Z,47.30
2023-05-02T16:26:30.210Z,46.85
2023-05-02T16:28:34.359Z,47.58
2023-05-02T16:30:34.644Z,48.22
2023-05-02T16:32:35.035Z,48.25
2023-05-02T16:34:35.401Z,46.80
2023-05-02T16:36:35.715Z,46.03
2023-05-02T16:38:36.021Z,46.73
2023-05-02T16:40:36.280Z,47.33
2023-05-02T16:42:37.453Z,45.76
2023-05-02T16:44:37.750Z,43.37
2023-05-02T16:46:38.091Z,42.40
2023-05-02T16:48:38.489Z,41.09
2023-05-02T16:50:38.753Z,41.77
2023-05-02T16:52:39.269Z,40.22
2023-05-02T16:54:41.261Z,42.61
2023-05-02T16:56:42.636Z,42.66
2023-05-02T16:58:43.233Z,42.11
2023-05-02T17:00:43.656Z,42.46
2023-05-02T17:02:44.121Z,42.82
2023-05-02T17:04:44.507Z,42.61
2023-05-02T17:06:44.844Z,42.93
2023-05-02T17:08:45.236Z,43.43
2023-05-02T17:10:46.383Z,45.20
2023-05-02T17:12:46.766Z,47.07
2023-05-02T17:14:47.204Z,48.57
2023-05-02T17:16:47.594Z,49.88
2023-05-02T17:18:47.851Z,50.96
2023-05-02T17:20:48.554Z,51.93
2023-05-02T17:22:49.207Z,51.41
2023-05-02T17:24:49.769Z,51.84
2023-05-02T17:26:50.444Z,52.97
2023-05-02T17:28:50.778Z,53.27
2023-05-02T17:30:51.384Z,53.20
2023-05-02T17:32:51.878Z,53.00
2023-05-02T17:34:52.244Z,53.22
2023-05-02T17:36:52.701Z,53.14
2023-05-02T17:38:53.196Z,53.55
2023-05-02T17:40:54.033Z,52.69
2023-05-02T17:43:37.202Z,50.35
2023-05-02T17:45:37.755Z,50.08
2023-05-02T17:47:38.172Z,50.31
2023-05-02T17:49:38.554Z,50.40
2023-05-02T17:51:38.823Z,50.40
2023-05-02T17:53:39.154Z,51.56
2023-05-02T17:55:39.461Z,52.74
2023-05-02T17:57:39.757Z,53.80
2023-05-02T17:59:40.097Z,54.83
2023-05-02T18:01:40.405Z,55.47
2023-05-02T18:03:41.032Z,56.00
2023-05-02T18:05:41.417Z,56.43
2023-05-02T18:07:41.708Z,57.37
2023-05-02T18:09:42.091Z,57.90
2023-05-02T18:11:42.430Z,58.00
2023-05-02T18:13:42.842Z,58.41
2023-05-02T18:15:43.174Z,58.34
2023-05-02T18:17:43.631Z,58.34
2023-05-02T18:19:43.910Z,58.67
2023-05-02T18:21:44.379Z,58.76
2023-05-02T18:23:44.645Z,58.69
2023-05-02T18:25:44.955Z,59.10
2023-05-02T18:27:45.359Z,59.50
2023-05-02T18:29:45.605Z,59.94
2023-05-02T18:31:45.930Z,60.35
2023-05-02T18:33:46.252Z,59.77
2023-05-02T18:35:46.734Z,60.37
2023-05-02T18:37:47.006Z,60.37
2023-05-02T18:39:47.317Z,60.58
2023-05-02T18:41:47.607Z,61.01
2023-05-02T18:43:47.947Z,61.32
2023-05-02T18:45:48.510Z,61.01
2023-05-02T18:47:48.896Z,61.34
2023-05-02T18:49:49.172Z,61.85
2023-05-02T18:51:49.454Z,61.98
2023-05-02T18:53:49.905Z,62.08
2023-05-02T18:55:54.976Z,61.98
2023-05-02T18:57:55.280Z,62.39
2023-05-02T18:59:55.607Z,62.93
2023-05-02T19:01:56.127Z,62.72
2023-05-02T19:03:56.642Z,62.75
2023-05-02T19:05:56.966Z,62.96
2023-05-02T19:07:57.248Z,63.06
2023-05-02T19:09:57.520Z,63.36
2023-05-02T19:11:57.957Z,63.90
2023-05-02T19:13:58.212Z,63.70
2023-05-02T19:15:58.543Z,63.70
2023-05-02T19:17:58.927Z,64.31
2023-05-02T19:19:59.413Z,64.34
2023-05-02T19:21:59.682Z,64.75
2023-05-02T19:24:00.017Z,64.54
2023-05-02T19:26:00.290Z,65.16
2023-05-02T19:28:00.711Z,65.19
2023-05-02T19:30:01.101Z,65.39
2023-05-02T19:32:01.419Z,65.59
2023-05-02T19:34:01.710Z,65.49
2023-05-02T19:36:50.898Z,65.11
2023-05-02T19:38:52.281Z,65.42
2023-05-02T19:40:52.638Z,65.52
2023-05-02T19:42:52.999Z,65.72
2023-05-02T19:44:53.374Z,65.86
2023-05-02T19:46:53.981Z,65.55
2023-05-02T19:48:55.570Z,65.86
2023-05-02T19:50:56.008Z,65.86
2023-05-02T19:52:56.279Z,65.75
2023-05-02T19:54:56.591Z,65.34
2023-05-02T19:56:56.995Z,66.27
2023-05-02T19:58:57.355Z,65.99
2023-05-02T20:00:57.677Z,66.30
2023-05-02T20:02:58.250Z,66.50
2023-05-02T20:04:58.565Z,66.53
2023-05-02T20:06:58.841Z,66.63
2023-05-02T20:08:59.277Z,66.63
2023-05-02T20:10:59.542Z,67.35
2023-05-02T20:12:59.875Z,67.14
2023-05-02T20:15:00.137Z,67.24
2023-05-02T20:17:02.055Z,67.58
2023-05-02T20:19:02.579Z,67.79
2023-05-02T20:21:02.863Z,68.60
2023-05-02T20:23:03.144Z,68.43
2023-05-02T20:25:03.637Z,68.53
2023-05-02T20:27:03.897Z,68.84
2023-05-02T20:29:04.242Z,69.56
2023-05-02T20:31:04.503Z,69.76
2023-05-02T20:33:14.753Z,69.89
2023-05-02T20:35:10.037Z,70.20
2023-05-02T20:37:10.335Z,70.61
2023-05-02T20:39:12.152Z,71.05
2023-05-02T20:41:13.039Z,71.36
2023-05-02T20:43:13.392Z,71.77
2023-05-02T20:45:14.090Z,71.97
2023-05-02T20:47:14.802Z,72.28
2023-05-02T20:49:15.273Z,72.92
2023-05-02T20:51:15.791Z,73.33
2023-05-02T20:53:16.091Z,73.94
2023-05-02T20:55:16.408Z,74.05
2023-05-02T20:57:16.688Z,74.35
2023-05-02T20:59:17.183Z,74.35
2023-05-02T21:01:17.480Z,74.56
2023-05-02T21:03:17.800Z,74.76
2023-05-02T21:05:18.199Z,75.21
2023-05-02T21:07:18.647Z,75.10
2023-05-02T21:09:18.889Z,75.01
2023-05-02T21:11:19.234Z,74.80
2023-05-02T21:13:19.506Z,75.21
2023-05-02T21:15:19.948Z,75.42
2023-05-02T21:17:20.256Z,75.31
2023-05-02T21:19:20.546Z,75.76
2023-05-02T21:21:20.822Z,75.96
2023-05-02T21:23:21.163Z,76.06
2023-05-02T21:25:21.471Z,76.72
2023-05-02T21:27:21.784Z,76.81
2023-05-02T21:29:22.158Z,76.92
2023-05-02T21:31:22.485Z,77.02
2023-05-02T21:33:22.786Z,77.26
2023-05-02T21:35:23.087Z,77.57
2023-05-02T21:37:23.513Z,77.47
2023-05-02T21:39:23.800Z,77.67
2023-05-02T21:41:24.073Z,77.98
2023-05-02T21:43:24.382Z,78.39
2023-05-02T21:45:24.686Z,78.83
2023-05-02T21:47:25.007Z,78.83
2023-05-02T21:49:25.276Z,79.04
2023-05-02T21:51:25.702Z,79.24
2023-05-02T21:53:25.987Z,79.49
2023-05-02T21:55:26.307Z,79.59
2023-05-02T21:57:26.605Z,79.69
2023-05-02T21:59:27.030Z,79.80
2023-05-02T22:01:27.414Z,79.90
2023-05-02T22:03:27.749Z,80.10
2023-05-02T22:05:28.033Z,80.41
2023-05-02T22:07:28.404Z,80.65
2023-05-02T22:09:29.036Z,80.65
2023-05-02T22:11:30.203Z,80.76
2023-05-02T22:13:30.509Z,81.06
2023-05-02T22:15:30.820Z,81.06
2023-05-02T22:17:31.132Z,81.27
2023-05-02T22:19:31.400Z,81.27
2023-05-02T22:21:31.744Z,81.37
2023-05-02T22:23:32.053Z,81.48
2023-05-02T22:25:32.320Z,81.82
2023-05-02T22:27:32.625Z,82.03
2023-05-02T22:29:32.920Z,82.13
2023-05-02T22:31:33.225Z,82.33
2023-05-02T22:33:33.511Z,82.75
2023-05-02T22:35:33.811Z,82.95
2023-05-02T22:37:34.092Z,83.29
2023-05-02T22:39:34.386Z,83.09
2023-05-02T22:41:34.675Z,83.19
2023-05-02T22:43:34.997Z,82.99
2023-05-02T22:45:35.350Z,83.29
2023-05-02T22:47:35.665Z,83.29
2023-05-02T22:49:35.898Z,83.29
2023-05-02T22:51:36.251Z,83.40
2023-05-02T22:53:36.508Z,83.61
2023-05-02T22:55:36.814Z,83.50
2023-05-02T22:57:37.141Z,83.61
2023-05-02T22:59:37.406Z,83.75
2023-05-02T23:01:37.755Z,83.64
2023-05-02T23:03:38.175Z,83.85
2023-05-02T23:05:38.626Z,83.85
2023-05-02T23:07:38.915Z,84.05
2023-05-02T23:09:39.248Z,84.30
2023-05-02T23:11:39.537Z,84.71
2023-05-02T23:13:39.820Z,84.91
2023-05-02T23:15:40.181Z,85.02
2023-05-02T23:17:40.523Z,85.02
2023-05-02T23:19:40.811Z,84.81
2023-05-02T23:21:41.104Z,84.50
2023-05-02T23:23:41.547Z,84.50
2023-05-02T23:25:41.790Z,84.50
2023-05-02T23:27:42.108Z,84.61
2023-05-02T23:29:42.405Z,84.40
2023-05-02T23:31:42.874Z,84.50
2023-05-02T23:33:43.170Z,84.40
2023-05-02T23:35:43.435Z,84.40
2023-05-02T23:37:43.750Z,84.40
2023-05-02T23:39:44.177Z,84.40
2023-05-02T23:41:44.456Z,84.61
2023-05-02T23:43:44.737Z,84.71
2023-05-02T23:45:45.048Z,84.75
2023-05-02T23:47:45.537Z,84.95
2023-05-02T23:49:45.818Z,85.26
2023-05-02T23:51:46.138Z,85.30
2023-05-02T23:53:46.392Z,85.82
2023-05-02T23:55:46.858Z,85.82
2023-05-02T23:57:47.098Z,85.82
2023-05-02T23:59:47.386Z,85.92
